createdAt,value
2022-12-27T06:20:03.831Z,4.10
2022-12-27T06:25:08.711Z,4.00
2022-12-27T06:30:13.325Z,4.00
2022-12-27T06:35:16.200Z,3.90
2022-12-27T06:40:20.945Z,3.90
2022-12-27T06:45:22.752Z,3.80
2022-12-27T06:50:24.643Z,3.70
2022-12-27T06:55:26.422Z,3.70
2022-12-27T07:00:28.400Z,3.60
2022-12-27T07:05:30.360Z,3.60
2022-12-27T07:10:32.205Z,3.60
2022-12-27T07:15:34.061Z,3.50
2022-12-27T07:20:35.946Z,3.50
2022-12-27T07:25:37.766Z,3.40
2022-12-27T07:30:41.825Z,3.40
2022-12-27T07:35:45.300Z,3.40
2022-12-27T07:40:47.296Z,3.40
2022-12-27T07:45:49.141Z,3.40
2022-12-27T07:50:57.095Z,3.30
2022-12-27T07:56:03.350Z,3.40
2022-12-27T08:01:05.479Z,3.30
2022-12-27T08:06:08.154Z,3.30
2022-12-27T08:11:09.992Z,3.30
2022-12-27T08:16:16.642Z,3.30
2022-12-27T08:21:18.906Z,3.30
2022-12-27T08:26:20.697Z,3.30
2022-12-27T08:31:22.560Z,3.40
2022-12-27T08:41:46.586Z,3.40
2022-12-27T08:46:48.747Z,3.40
2022-12-27T08:51:50.599Z,3.40
2022-12-27T08:56:52.474Z,3.50
2022-12-27T09:01:54.534Z,3.50
2022-12-27T09:06:58.469Z,3.60
2022-12-27T09:12:03.172Z,3.60
2022-12-27T09:17:09.519Z,3.60
2022-12-27T09:22:17.160Z,3.60
2022-12-27T09:27:19.117Z,3.70
2022-12-27T09:32:28.293Z,3.80
2022-12-27T09:37:31.497Z,3.80
2022-12-27T09:43:21.013Z,3.90
2022-12-27T09:48:33.544Z,3.90
2022-12-27T09:53:46.456Z,4.10
2022-12-27T09:58:51.490Z,4.20
2022-12-27T10:03:54.396Z,4.20
2022-12-27T10:08:56.194Z,4.30
2022-12-27T10:14:06.815Z,4.40
2022-12-27T10:19:29.141Z,4.50
2022-12-27T10:24:52.410Z,4.60
2022-12-27T10:29:56.756Z,4.70
2022-12-27T10:35:01.395Z,4.80
2022-12-27T10:40:17.583Z,5.00
2022-12-27T10:45:26.740Z,5.10
2022-12-27T10:50:29.467Z,5.20
2022-12-27T10:55:39.129Z,5.30
2022-12-27T11:00:53.145Z,5.40
2022-12-27T11:06:04.497Z,5.50
2022-12-27T11:11:23.025Z,5.60
2022-12-27T11:16:29.603Z,5.70
2022-12-27T11:21:33.438Z,5.80
2022-12-27T11:26:53.935Z,5.80
2022-12-27T11:31:59.560Z,5.90
2022-12-27T11:37:16.259Z,6.00
2022-12-27T11:42:40.307Z,6.00
2022-12-27T11:48:07.490Z,6.10
2022-12-27T11:53:55.790Z,6.20
2022-12-27T11:59:17.369Z,6.20
2022-12-27T12:04:31.489Z,6.20
2022-12-27T12:15:19.987Z,6.30
2022-12-27T12:20:59.452Z,6.30
2022-12-27T12:26:18.129Z,6.30
2022-12-27T12:31:23.336Z,6.30
2022-12-27T12:36:37.436Z,6.30
2022-12-27T12:41:42.531Z,6.30
2022-12-27T12:46:56.065Z,6.20
2022-12-27T12:52:36.140Z,6.40
2022-12-27T12:58:05.908Z,6.50
2022-12-27T13:03:46.223Z,6.50
2022-12-27T13:09:28.163Z,6.50
2022-12-27T13:15:04.069Z,6.60
2022-12-27T13:20:24.673Z,6.50
2022-12-27T13:25:51.167Z,6.50
2022-12-27T13:31:30.721Z,6.50
2022-12-27T13:37:03.534Z,6.60
2022-12-27T13:42:44.186Z,6.60
2022-12-27T13:48:07.121Z,6.70
2022-12-27T13:53:24.381Z,6.70
2022-12-27T13:59:05.037Z,6.80
2022-12-27T14:04:26.149Z,6.80
2022-12-27T14:09:30.820Z,6.80
2022-12-27T14:14:33.245Z,6.80
2022-12-27T14:20:00.696Z,6.90
2022-12-27T14:25:30.660Z,6.90
2022-12-27T14:30:41.760Z,7.00
2022-12-27T14:36:20.883Z,7.00
2022-12-27T14:41:50.752Z,7.00
2022-12-27T14:47:07.726Z,7.00
2022-12-27T14:52:18.743Z,7.10
2022-12-27T14:57:39.267Z,7.10
2022-12-27T15:02:48.825Z,7.10
2022-12-27T15:08:03.180Z,7.10
2022-12-27T15:13:14.119Z,7.10
2022-12-27T15:18:23.685Z,7.10
2022-12-27T15:23:34.457Z,7.10
2022-12-27T15:28:39.342Z,7.10
2022-12-27T15:33:59.221Z,7.00
2022-12-27T15:39:01.257Z,7.00
2022-12-27T15:44:40.710Z,7.00
